createdAt,value
2023-05-08T00:01:21.991Z,12.37
2023-05-08T00:06:24.769Z,12.35
2023-05-08T00:11:27.551Z,12.46
2023-05-08T00:16:32.698Z,12.35
2023-05-08T00:21:35.488Z,12.23
2023-05-08T00:26:38.226Z,12.35
2023-05-08T00:31:42.351Z,12.55
2023-05-08T00:36:45.128Z,12.40
2023-05-08T00:41:47.846Z,12.14
2023-05-08T00:46:52.076Z,12.35
2023-05-08T00:51:56.892Z,12.17
2023-05-08T00:56:59.708Z,12.22
2023-05-08T01:02:03.930Z,12.11
2023-05-08T01:07:06.731Z,12.01
2023-05-08T01:12:17.009Z,12.13
2023-05-08T01:17:25.728Z,12.13
2023-05-08T01:22:42.957Z,12.08
2023-05-08T01:28:13.184Z,12.16
2023-05-08T01:33:21.615Z,12.01
2023-05-08T01:38:33.414Z,12.13
2023-05-08T01:43:41.845Z,11.98
2023-05-08T01:48:50.548Z,12.14
2023-05-08T01:53:56.965Z,12.04
2023-05-08T01:59:00.429Z,12.05
2023-05-08T02:04:06.437Z,12.10
2023-05-08T02:09:10.753Z,12.07
2023-05-08T02:14:14.776Z,11.98
2023-05-08T02:19:19.478Z,11.92
2023-05-08T02:24:22.284Z,11.98
2023-05-08T02:29:25.262Z,11.91
2023-05-08T02:34:29.827Z,11.95
2023-05-08T02:39:32.878Z,11.81
2023-05-08T02:44:35.611Z,11.87
2023-05-08T02:49:45.636Z,11.87
2023-05-08T02:54:57.442Z,11.89
2023-05-08T03:00:04.462Z,11.79
2023-05-08T03:05:15.554Z,11.91
2023-05-08T03:10:19.733Z,11.84
2023-05-08T03:15:26.999Z,11.68
2023-05-08T03:20:33.904Z,11.79
2023-05-08T03:25:39.495Z,11.83
2023-05-08T03:30:42.965Z,11.88
2023-05-08T03:35:51.053Z,11.91
2023-05-08T03:40:53.962Z,11.63
2023-05-08T03:45:57.763Z,11.73
2023-05-08T03:51:03.856Z,11.71
2023-05-08T03:56:07.849Z,11.66
2023-05-08T04:01:14.976Z,11.63
2023-05-08T04:06:28.755Z,11.59
2023-05-08T04:11:39.480Z,11.35
2023-05-08T04:16:50.247Z,11.24
2023-05-08T04:21:56.539Z,11.35
2023-05-08T04:26:59.933Z,11.46
2023-05-08T04:32:05.269Z,11.44
2023-05-08T04:37:24.224Z,11.60
2023-05-08T04:42:27.472Z,11.56
2023-05-08T04:47:33.755Z,11.53
2023-05-08T04:52:38.691Z,11.55
2023-05-08T04:57:42.150Z,11.57
2023-05-08T05:02:45.515Z,11.64
2023-05-08T05:07:49.722Z,11.70
2023-05-08T05:12:54.290Z,11.70
2023-05-08T05:17:57.575Z,11.80
2023-05-08T05:23:01.871Z,12.07
2023-05-08T05:28:05.224Z,12.30
2023-05-08T05:33:08.774Z,12.20
2023-05-08T05:38:13.337Z,12.52
2023-05-08T05:43:16.754Z,12.62
2023-05-08T05:48:19.746Z,13.11
2023-05-08T05:53:24.030Z,13.37
2023-05-08T05:58:28.358Z,13.69
2023-05-08T06:03:31.290Z,13.87
2023-05-08T06:08:35.531Z,13.89
2023-05-08T06:13:40.514Z,13.87
2023-05-08T06:18:43.486Z,13.14
2023-05-08T06:23:47.614Z,13.34
2023-05-08T06:28:50.295Z,13.82
2023-05-08T06:33:52.961Z,13.85
2023-05-08T06:38:56.996Z,13.92
2023-05-08T06:43:59.719Z,14.07
2023-05-08T06:49:02.414Z,13.76
2023-05-08T06:54:08.287Z,14.16
2023-05-08T06:59:11.075Z,14.57
2023-05-08T07:04:13.892Z,14.34
2023-05-08T07:09:20.947Z,14.39
2023-05-08T07:14:23.684Z,14.34
2023-05-08T07:19:26.548Z,14.39
2023-05-08T07:24:30.758Z,14.24
2023-05-08T07:29:33.507Z,14.25
2023-05-08T07:34:36.354Z,14.41
2023-05-08T07:39:40.450Z,14.46
2023-05-08T07:44:53.681Z,14.59
2023-05-08T07:49:57.738Z,14.64
2023-05-08T07:55:01.799Z,15.02
2023-05-08T08:00:04.992Z,15.19
2023-05-08T08:05:16.194Z,15.55
2023-05-08T08:10:20.453Z,15.64
2023-05-08T08:15:23.199Z,15.92
2023-05-08T08:20:26.247Z,16.00
2023-05-08T08:25:30.547Z,16.08
2023-05-08T08:30:33.337Z,16.51
2023-05-08T08:35:36.153Z,16.68
2023-05-08T08:40:43.644Z,16.66
2023-05-08T08:45:46.425Z,16.63
2023-05-08T08:50:52.058Z,16.51
2023-05-08T08:55:57.179Z,16.59
2023-05-08T09:01:00.279Z,16.82
2023-05-08T09:06:03.287Z,16.89
2023-05-08T09:11:07.477Z,16.99
2023-05-08T09:16:10.767Z,17.36
2023-05-08T09:21:13.841Z,17.40
2023-05-08T09:26:32.200Z,17.84
2023-05-08T09:31:36.416Z,17.71
2023-05-08T09:36:40.146Z,17.74
2023-05-08T09:41:58.114Z,17.87
2023-05-08T09:47:14.027Z,18.12
2023-05-08T09:52:16.819Z,18.28
2023-05-08T09:57:21.492Z,18.26
2023-05-08T10:02:24.173Z,18.12
2023-05-08T10:07:31.496Z,19.19
2023-05-08T10:12:37.793Z,19.02
2023-05-08T10:17:45.979Z,19.73
2023-05-08T10:22:50.062Z,19.77
2023-05-08T10:27:58.524Z,19.11
2023-05-08T10:33:04.369Z,19.25
2023-05-08T10:38:09.881Z,18.97
2023-05-08T10:43:14.047Z,17.96
2023-05-08T10:48:26.861Z,18.54
2023-05-08T10:53:34.391Z,19.00
2023-05-08T10:58:40.227Z,18.45
2023-05-08T11:03:45.296Z,19.22
2023-05-08T11:08:50.292Z,19.61
2023-05-08T11:13:57.284Z,19.63
2023-05-08T11:19:19.050Z,19.54
2023-05-08T11:24:35.144Z,19.64
2023-05-08T11:29:39.882Z,20.03
2023-05-08T11:34:46.483Z,19.52
2023-05-08T11:39:49.632Z,20.16
2023-05-08T11:45:05.347Z,20.58
2023-05-08T11:50:10.494Z,19.49
2023-05-08T11:55:15.682Z,20.18
2023-05-08T12:00:20.301Z,21.24
2023-05-08T12:05:28.048Z,19.91
2023-05-08T12:10:30.857Z,20.60
2023-05-08T12:15:34.945Z,20.69
2023-05-08T12:20:37.699Z,20.37
2023-05-08T12:25:41.069Z,20.98
2023-05-08T12:30:45.244Z,21.49
2023-05-08T12:35:47.988Z,22.41
2023-05-08T12:40:52.908Z,21.82
2023-05-08T12:45:57.065Z,20.25
2023-05-08T12:51:04.744Z,19.95
2023-05-08T12:56:08.080Z,20.07
2023-05-08T13:01:13.745Z,20.16
2023-05-08T13:06:23.293Z,21.02
2023-05-08T13:11:30.195Z,20.74
2023-05-08T13:16:43.126Z,20.73
2023-05-08T13:21:47.615Z,20.50
2023-05-08T13:26:50.320Z,20.57
2023-05-08T13:31:54.411Z,20.77
2023-05-08T13:36:57.193Z,20.86
2023-05-08T13:41:59.889Z,20.85
2023-05-08T13:47:04.016Z,20.74
2023-05-08T13:52:06.702Z,20.57
2023-05-08T13:57:09.649Z,20.41
2023-05-08T14:02:13.951Z,19.49
2023-05-08T14:07:18.297Z,19.62
2023-05-08T14:12:20.999Z,19.46
2023-05-08T14:17:25.301Z,19.31
2023-05-08T14:22:28.168Z,18.81
2023-05-08T14:27:30.955Z,18.63
2023-05-08T14:32:35.169Z,18.31
2023-05-08T14:37:38.021Z,18.23
2023-05-08T14:42:40.757Z,18.16
2023-05-08T14:47:44.933Z,17.90
2023-05-08T14:52:47.714Z,17.70
2023-05-08T14:57:50.657Z,17.85
2023-05-08T15:02:54.816Z,17.73
2023-05-08T15:07:57.941Z,17.81
2023-05-08T15:13:00.818Z,17.13
2023-05-08T15:18:05.174Z,17.24
2023-05-08T15:23:08.347Z,17.36
2023-05-08T15:28:12.364Z,17.15
2023-05-08T15:33:16.468Z,17.61
2023-05-08T15:38:22.622Z,17.42
2023-05-08T15:43:25.717Z,17.22
2023-05-08T15:48:29.763Z,17.42
2023-05-08T15:53:33.732Z,17.57
2023-05-08T15:58:38.858Z,17.44
2023-05-08T16:03:43.060Z,17.62
2023-05-08T16:08:45.892Z,17.55
2023-05-08T16:13:48.662Z,17.43
2023-05-08T16:18:52.733Z,17.61
2023-05-08T16:23:55.851Z,17.60
2023-05-08T16:28:58.579Z,17.67
2023-05-08T16:34:02.611Z,17.46
2023-05-08T16:39:05.828Z,17.42
2023-05-08T16:44:08.523Z,17.50
2023-05-08T16:49:12.578Z,17.62
2023-05-08T16:54:15.244Z,17.57
2023-05-08T16:59:17.906Z,17.64
2023-05-08T17:04:21.941Z,17.83
2023-05-08T17:09:25.318Z,17.66
2023-05-08T17:14:28.009Z,17.72
2023-05-08T17:19:32.043Z,17.75
2023-05-08T17:24:36.621Z,17.51
2023-05-08T17:29:39.830Z,17.63
2023-05-08T17:34:43.997Z,17.39
2023-05-08T17:39:47.101Z,17.38
2023-05-08T17:44:49.904Z,17.38
2023-05-08T17:49:53.998Z,17.51
2023-05-08T17:54:56.930Z,17.30
2023-05-08T17:59:59.616Z,17.42
2023-05-08T18:05:03.812Z,17.31
2023-05-08T18:10:07.680Z,17.36
2023-05-08T18:15:11.404Z,17.40
2023-05-08T18:20:15.893Z,17.29
2023-05-08T18:25:18.917Z,17.10
2023-05-08T18:30:21.700Z,17.09
2023-05-08T18:35:25.863Z,16.93
2023-05-08T18:40:28.741Z,16.87
2023-05-08T18:45:31.613Z,16.88
2023-05-08T18:50:35.711Z,16.82
2023-05-08T18:55:38.491Z,16.72
2023-05-08T19:00:41.295Z,16.69
2023-05-08T19:05:45.388Z,16.68
2023-05-08T19:10:48.285Z,16.75
2023-05-08T19:15:51.119Z,16.69
2023-05-08T19:20:55.179Z,16.73
2023-05-08T19:25:57.856Z,16.72
2023-05-08T19:31:00.526Z,16.66
2023-05-08T19:36:04.655Z,16.63
2023-05-08T19:41:07.403Z,16.69
2023-05-08T19:46:10.114Z,16.69
2023-05-08T19:51:16.143Z,16.72
2023-05-08T19:56:18.862Z,16.55
2023-05-08T20:01:21.590Z,16.61
2023-05-08T20:06:25.652Z,16.52
2023-05-08T20:11:28.371Z,16.54
2023-05-08T20:16:31.090Z,16.51
2023-05-08T20:21:35.148Z,16.57
2023-05-08T20:26:37.938Z,16.58
2023-05-08T20:31:41.278Z,16.53
2023-05-08T20:36:45.635Z,16.49
2023-05-08T20:41:48.357Z,16.44
2023-05-08T20:46:51.326Z,16.41
2023-05-08T20:51:55.762Z,16.31
2023-05-08T20:56:58.498Z,16.36
2023-05-08T21:02:01.652Z,16.28
2023-05-08T21:07:05.713Z,16.25
2023-05-08T21:12:09.756Z,16.16
2023-05-08T21:17:12.485Z,16.17
2023-05-08T21:22:17.345Z,16.10
2023-05-08T21:27:19.977Z,16.13
2023-05-08T21:32:22.713Z,16.13
2023-05-08T21:37:26.759Z,16.13
2023-05-08T21:42:29.401Z,16.04
2023-05-08T21:47:32.154Z,15.94
2023-05-08T21:52:36.184Z,15.94
2023-05-08T21:57:38.908Z,15.88
2023-05-08T22:02:41.689Z,15.86
2023-05-08T22:07:45.754Z,15.73
2023-05-08T22:12:49.080Z,15.80
2023-05-08T22:17:51.855Z,15.74
2023-05-08T22:22:55.916Z,15.73
2023-05-08T22:27:58.707Z,15.68
2023-05-08T22:33:01.772Z,15.59
2023-05-08T22:38:05.966Z,15.61
2023-05-08T22:43:08.683Z,15.62
2023-05-08T22:48:11.939Z,15.55
2023-05-08T22:53:16.581Z,15.57
2023-05-08T22:58:19.280Z,15.59
2023-05-08T23:03:21.984Z,15.56
2023-05-08T23:08:26.023Z,15.57
2023-05-08T23:13:28.773Z,15.53
2023-05-08T23:18:32.592Z,15.51
2023-05-08T23:23:37.025Z,15.47
2023-05-08T23:28:39.768Z,15.45
2023-05-08T23:33:42.456Z,15.40
2023-05-08T23:38:46.552Z,15.40
2023-05-08T23:43:49.264Z,15.34
2023-05-08T23:48:51.961Z,15.36
2023-05-08T23:53:55.989Z,15.35
2023-05-08T23:58:58.697Z,15.36
